createdAt,value
2018-06-20T00:00:09.984Z,99.90
2018-06-20T00:02:39.064Z,99.90
2018-06-20T00:05:08.256Z,99.90
2018-06-20T00:07:38.216Z,99.90
2018-06-20T00:10:07.364Z,99.90
2018-06-20T00:12:36.484Z,99.90
2018-06-20T00:15:05.650Z,99.90
2018-06-20T00:17:35.596Z,99.90
2018-06-20T00:20:04.744Z,99.90
2018-06-20T00:22:33.917Z,99.90
2018-06-20T00:25:03.261Z,99.90
2018-06-20T00:27:32.389Z,99.90
2018-06-20T00:30:02.488Z,99.90
2018-06-20T00:32:31.600Z,99.90
2018-06-20T00:35:00.731Z,99.90
2018-06-20T00:37:30.132Z,99.90
2018-06-20T00:39:59.184Z,99.90
2018-06-20T00:42:28.324Z,99.90
2018-06-20T00:44:59.000Z,99.90
2018-06-20T00:47:28.137Z,99.90
2018-06-20T00:49:57.240Z,99.90
2018-06-20T00:52:26.400Z,99.90
2018-06-20T00:54:55.495Z,99.90
2018-06-20T00:57:25.500Z,99.90
2018-06-20T00:59:54.623Z,99.90
2018-06-20T01:02:23.792Z,99.90
2018-06-20T01:04:52.933Z,99.90
2018-06-20T01:07:22.100Z,99.90
2018-06-20T01:09:51.289Z,99.90
2018-06-20T01:12:21.203Z,99.90
2018-06-20T01:14:50.448Z,99.90
2018-06-20T01:17:19.622Z,99.90
2018-06-20T01:19:49.000Z,99.90
2018-06-20T01:22:18.124Z,99.90
2018-06-20T01:24:47.392Z,99.90
2018-06-20T01:27:18.276Z,99.90
2018-06-20T01:29:47.472Z,99.90
2018-06-20T01:32:16.669Z,99.90
2018-06-20T01:34:45.848Z,99.90
2018-06-20T01:37:15.044Z,99.90
2018-06-20T01:39:44.244Z,99.90
2018-06-20T01:42:13.976Z,99.90
2018-06-20T01:44:43.100Z,99.90
2018-06-20T01:47:12.233Z,99.90
2018-06-20T01:49:42.110Z,99.90
2018-06-20T01:52:11.260Z,99.90
2018-06-20T01:54:40.496Z,99.90
2018-06-20T01:57:10.424Z,99.90
2018-06-20T01:59:39.580Z,99.90
2018-06-20T02:02:08.668Z,99.90
2018-06-20T02:04:37.988Z,99.90
2018-06-20T02:07:07.255Z,99.90
2018-06-20T02:09:36.460Z,99.90
2018-06-20T02:12:06.351Z,99.90
2018-06-20T02:14:35.448Z,99.90
2018-06-20T02:17:04.596Z,99.90
2018-06-20T02:19:33.996Z,99.90
2018-06-20T02:22:03.112Z,99.90
2018-06-20T02:24:32.356Z,99.90
2018-06-20T02:27:02.317Z,99.90
2018-06-20T02:29:31.404Z,99.90
2018-06-20T02:32:01.593Z,99.90
2018-06-20T02:34:30.685Z,99.90
2018-06-20T02:36:59.812Z,99.90
2018-06-20T02:39:29.216Z,99.90
2018-06-20T02:41:59.249Z,99.90
2018-06-20T02:44:28.441Z,99.90
2018-06-20T02:46:57.628Z,99.90
2018-06-20T02:49:26.841Z,99.90
2018-06-20T02:51:55.932Z,99.90
2018-06-20T02:54:25.185Z,99.90
2018-06-20T02:56:55.037Z,99.90
2018-06-20T02:59:24.144Z,99.90
2018-06-20T03:01:53.221Z,99.90
2018-06-20T03:04:22.384Z,99.90
2018-06-20T03:06:51.572Z,99.90
2018-06-20T03:09:24.918Z,99.90
2018-06-20T03:11:54.808Z,99.90
2018-06-20T03:14:23.916Z,99.90
2018-06-20T03:16:52.996Z,99.90
2018-06-20T03:19:22.341Z,99.90
2018-06-20T03:21:51.525Z,99.90
2018-06-20T03:24:20.707Z,99.90
2018-06-20T03:26:50.581Z,99.90
2018-06-20T03:29:19.704Z,99.90
2018-06-20T03:31:48.813Z,99.90
2018-06-20T03:34:18.195Z,99.90
2018-06-20T03:36:47.312Z,99.90
2018-06-20T03:39:16.541Z,99.90
2018-06-20T03:41:46.442Z,99.90
2018-06-20T03:44:15.541Z,99.90
2018-06-20T03:46:44.616Z,99.90
2018-06-20T03:49:14.000Z,99.90
2018-06-20T03:51:43.116Z,99.90
2018-06-20T03:54:12.312Z,99.90
2018-06-20T03:56:42.057Z,99.90
2018-06-20T03:59:11.199Z,99.90
2018-06-20T04:01:40.372Z,99.90
2018-06-20T04:04:09.520Z,99.90
2018-06-20T04:06:38.617Z,99.90
2018-06-20T04:09:11.037Z,99.90
2018-06-20T04:11:40.828Z,99.90
2018-06-20T04:14:10.205Z,99.90
2018-06-20T04:16:39.348Z,99.90
2018-06-20T04:19:08.692Z,99.90
2018-06-20T04:21:37.848Z,99.90
2018-06-20T04:24:07.044Z,99.90
2018-06-20T04:26:37.936Z,99.90
2018-06-20T04:29:07.081Z,99.90
2018-06-20T04:31:36.201Z,99.90
2018-06-20T04:34:05.340Z,99.90
2018-06-20T04:36:34.465Z,99.90
2018-06-20T04:39:04.435Z,99.90
2018-06-20T04:41:34.328Z,99.90
2018-06-20T04:44:03.532Z,99.90
2018-06-20T04:46:32.645Z,99.90
2018-06-20T04:49:02.605Z,99.90
2018-06-20T04:51:32.632Z,99.90
2018-06-20T04:54:02.695Z,99.90
2018-06-20T04:56:31.837Z,99.90
2018-06-20T04:59:00.988Z,99.90
2018-06-20T05:01:30.349Z,99.90
2018-06-20T05:03:59.444Z,99.90
2018-06-20T05:06:29.299Z,99.90
2018-06-20T05:09:01.832Z,99.90
2018-06-20T05:11:31.941Z,99.90
2018-06-20T05:14:02.157Z,99.90
2018-06-20T05:16:31.324Z,99.90
2018-06-20T05:19:00.512Z,99.90
2018-06-20T05:21:29.680Z,99.90
2018-06-20T05:23:59.816Z,99.90
2018-06-20T05:26:28.953Z,99.90
2018-06-20T05:28:58.648Z,99.90
2018-06-20T05:31:28.696Z,99.90
2018-06-20T05:33:58.508Z,99.80
2018-06-20T05:36:28.732Z,99.80
2018-06-20T05:38:58.589Z,99.90
2018-06-20T05:41:28.550Z,99.60
2018-06-20T05:43:58.884Z,99.60
2018-06-20T05:46:28.032Z,99.20
2018-06-20T05:48:58.152Z,99.40
2018-06-20T05:51:28.141Z,99.20
2018-06-20T05:53:58.255Z,99.20
2018-06-20T05:56:28.100Z,99.00
2018-06-20T05:58:58.168Z,99.10
2018-06-20T06:01:27.721Z,99.60
2018-06-20T06:03:57.852Z,99.70
2018-06-20T06:06:28.216Z,99.20
2018-06-20T06:08:58.292Z,99.10
2018-06-20T06:11:28.100Z,98.60
2018-06-20T06:13:57.988Z,97.90
2018-06-20T06:16:28.020Z,97.90
2018-06-20T06:18:58.889Z,97.70
2018-06-20T06:21:29.220Z,97.20
2018-06-20T06:23:59.153Z,96.90
2018-06-20T06:26:29.040Z,96.90
2018-06-20T06:28:59.624Z,96.10
2018-06-20T06:31:29.413Z,95.60
2018-06-20T06:33:59.485Z,94.30
2018-06-20T06:36:29.596Z,94.30
2018-06-20T06:38:59.136Z,93.70
2018-06-20T06:41:29.647Z,93.80
2018-06-20T06:43:59.272Z,94.30
2018-06-20T06:46:29.413Z,94.70
2018-06-20T06:48:58.944Z,94.60
2018-06-20T06:51:29.672Z,95.40
2018-06-20T06:54:00.469Z,95.10
2018-06-20T06:56:32.372Z,95.10
2018-06-20T06:59:02.625Z,94.50
2018-06-20T07:01:32.768Z,94.30
2018-06-20T07:04:02.808Z,93.70
2018-06-20T07:06:33.028Z,93.20
2018-06-20T07:09:02.991Z,93.50
2018-06-20T07:11:32.889Z,92.90
2018-06-20T07:14:02.850Z,92.90
2018-06-20T07:16:33.126Z,92.50
2018-06-20T07:19:02.846Z,92.50
2018-06-20T07:21:32.959Z,91.50
2018-06-20T07:24:02.889Z,90.30
2018-06-20T07:26:32.006Z,90.00
2018-06-20T07:29:02.073Z,90.40
2018-06-20T07:31:32.456Z,89.50
2018-06-20T07:34:02.406Z,87.60
2018-06-20T07:36:32.673Z,90.10
2018-06-20T07:39:03.021Z,86.20
2018-06-20T07:41:34.074Z,85.50
2018-06-20T07:44:04.060Z,77.90
2018-06-20T07:46:34.577Z,76.30
2018-06-20T07:49:05.632Z,77.00
2018-06-20T07:51:36.522Z,74.20
2018-06-20T07:54:06.185Z,69.50
2018-06-20T07:56:36.103Z,58.80
2018-06-20T07:59:12.047Z,57.10
2018-06-20T08:02:04.980Z,52.80
2018-06-20T08:04:40.180Z,55.10
2018-06-20T08:07:16.838Z,54.00
2018-06-20T08:09:53.064Z,57.30
2018-06-20T08:12:30.232Z,62.80
2018-06-20T08:15:06.017Z,62.80
2018-06-20T08:17:42.400Z,56.00
2018-06-20T08:21:42.813Z,51.60
2018-06-20T08:24:13.450Z,52.60
2018-06-20T08:26:43.229Z,54.60
2018-06-20T08:29:13.559Z,52.20
2018-06-20T08:31:43.597Z,48.30
2018-06-20T08:34:15.122Z,43.10
2018-06-20T08:36:44.972Z,43.60
2018-06-20T08:39:15.022Z,48.50
2018-06-20T08:41:45.173Z,50.60
2018-06-20T08:44:15.176Z,51.10
2018-06-20T08:46:45.284Z,49.40
2018-06-20T08:49:15.259Z,54.70
2018-06-20T08:51:45.628Z,51.50
2018-06-20T08:54:15.707Z,51.80
2018-06-20T08:56:46.071Z,48.60
2018-06-20T08:59:16.668Z,45.20
2018-06-20T09:01:45.818Z,47.90
2018-06-20T09:04:20.876Z,49.20
2018-06-20T09:06:57.060Z,47.60
2018-06-20T09:09:32.251Z,41.40
2018-06-20T09:12:07.008Z,39.60
2018-06-20T09:14:43.506Z,39.70
2018-06-20T09:17:17.877Z,42.70
2018-06-20T09:19:50.376Z,44.70
2018-06-20T09:22:20.588Z,43.90
2018-06-20T09:24:51.728Z,45.10
2018-06-20T09:27:21.861Z,43.90
2018-06-20T09:29:51.985Z,44.90
2018-06-20T09:32:21.964Z,43.40
2018-06-20T09:34:52.065Z,41.10
2018-06-20T09:37:23.107Z,40.50
2018-06-20T09:39:53.736Z,39.60
2018-06-20T09:42:24.928Z,42.50
2018-06-20T09:44:54.650Z,46.40
2018-06-20T09:47:24.708Z,46.20
2018-06-20T09:49:54.568Z,49.50
2018-06-20T09:52:24.602Z,47.50
2018-06-20T09:54:54.728Z,41.90
2018-06-20T09:57:24.738Z,40.00
2018-06-20T10:00:00.220Z,37.40
2018-06-20T10:02:36.178Z,39.40
2018-06-20T10:05:11.446Z,41.00
2018-06-20T10:07:46.421Z,38.50
2018-06-20T10:10:22.232Z,37.60
2018-06-20T10:12:57.086Z,34.80
2018-06-20T10:15:27.932Z,36.00
2018-06-20T10:17:57.801Z,36.90
2018-06-20T10:20:28.897Z,36.80
2018-06-20T10:23:00.040Z,35.80
2018-06-20T10:25:30.585Z,37.40
2018-06-20T10:28:00.818Z,37.60
2018-06-20T10:30:30.696Z,39.80
2018-06-20T10:33:01.730Z,38.30
2018-06-20T10:35:31.635Z,36.90
2018-06-20T10:38:01.642Z,38.10
2018-06-20T10:40:31.946Z,38.00
2018-06-20T10:43:01.972Z,35.60
2018-06-20T10:45:36.987Z,34.00
2018-06-20T10:48:12.042Z,37.90
2018-06-20T10:50:41.360Z,40.90
2018-06-20T10:53:10.577Z,45.40
2018-06-20T10:55:40.832Z,46.30
2018-06-20T10:58:16.324Z,45.00
2018-06-20T11:00:52.954Z,42.90
2018-06-20T11:03:29.232Z,39.70
2018-06-20T11:06:05.310Z,37.00
2018-06-20T11:08:40.374Z,35.80
2018-06-20T11:11:16.091Z,32.70
2018-06-20T11:13:46.179Z,32.80
2018-06-20T11:16:16.245Z,32.00
2018-06-20T11:18:48.399Z,31.00
2018-06-20T11:21:17.707Z,30.30
2018-06-20T11:23:47.703Z,29.20
2018-06-20T11:26:17.692Z,29.10
2018-06-20T11:28:47.540Z,28.80
2018-06-20T11:31:17.269Z,31.30
2018-06-20T11:33:46.472Z,35.60
2018-06-20T11:36:16.240Z,35.20
2018-06-20T11:38:46.553Z,34.10
2018-06-20T11:41:15.814Z,32.20
2018-06-20T11:43:45.006Z,31.60
2018-06-20T11:46:21.799Z,31.60
2018-06-20T11:48:52.504Z,31.90
2018-06-20T11:51:22.282Z,32.20
2018-06-20T11:53:52.403Z,31.70
2018-06-20T11:56:23.692Z,31.90
2018-06-20T11:59:02.428Z,31.70
2018-06-20T12:01:36.953Z,31.90
2018-06-20T12:04:12.855Z,33.00
2018-06-20T12:06:48.306Z,33.00
2018-06-20T12:09:24.750Z,32.70
2018-06-20T12:12:01.858Z,31.90
2018-06-20T12:14:36.631Z,31.60
2018-06-20T12:17:06.145Z,31.20
2018-06-20T12:19:42.129Z,32.20
2018-06-20T12:22:17.992Z,31.60
2018-06-20T12:24:54.751Z,32.10
2018-06-20T12:27:29.377Z,30.50
2018-06-20T12:30:05.882Z,30.20
2018-06-20T12:32:42.811Z,33.20
2018-06-20T12:35:22.825Z,33.60
2018-06-20T12:37:59.217Z,34.50
2018-06-20T12:40:43.419Z,34.90
2018-06-20T12:43:19.922Z,33.60
2018-06-20T12:45:53.747Z,31.20
2018-06-20T12:48:23.539Z,30.50
2018-06-20T12:50:53.092Z,30.10
2018-06-20T12:53:24.276Z,31.80
2018-06-20T12:55:54.210Z,32.30
2018-06-20T12:58:24.209Z,32.60
2018-06-20T13:00:53.613Z,29.70
2018-06-20T13:03:27.189Z,31.40
2018-06-20T13:05:56.670Z,31.70
2018-06-20T13:08:27.279Z,31.00
2018-06-20T13:10:57.779Z,30.30
2018-06-20T13:13:27.459Z,30.00
2018-06-20T13:15:57.224Z,28.80
2018-06-20T13:18:28.353Z,28.90
2018-06-20T13:20:58.759Z,29.70
2018-06-20T13:23:29.914Z,31.20
2018-06-20T13:26:00.235Z,32.40
2018-06-20T13:28:30.866Z,32.40
2018-06-20T13:33:11.207Z,33.40
2018-06-20T13:35:48.490Z,34.90
2018-06-20T13:38:29.310Z,32.20
2018-06-20T13:41:05.362Z,32.10
2018-06-20T13:43:43.114Z,30.80
2018-06-20T13:46:18.486Z,31.60
2018-06-20T13:48:48.851Z,30.00
2018-06-20T13:51:18.462Z,29.90
2018-06-20T13:53:48.072Z,29.60
2018-06-20T13:56:17.823Z,29.10
2018-06-20T13:58:46.855Z,29.80
2018-06-20T14:01:16.789Z,29.50
2018-06-20T14:03:46.502Z,29.00
2018-06-20T14:06:15.884Z,28.80
2018-06-20T14:08:45.640Z,28.00
2018-06-20T14:11:15.459Z,28.50
2018-06-20T14:13:45.833Z,30.10
2018-06-20T14:16:16.300Z,29.90
2018-06-20T14:18:45.452Z,30.20
2018-06-20T14:21:20.253Z,30.50
2018-06-20T14:23:49.492Z,30.40
2018-06-20T14:26:19.348Z,30.10
2018-06-20T14:28:50.011Z,31.80
2018-06-20T14:31:26.470Z,32.10
2018-06-20T14:34:00.914Z,31.90
2018-06-20T14:36:35.948Z,33.20
2018-06-20T14:39:14.061Z,31.60
2018-06-20T14:41:50.505Z,32.90
2018-06-20T14:44:20.378Z,33.30
2018-06-20T14:46:49.535Z,33.50
2018-06-20T14:49:19.033Z,32.80
2018-06-20T14:51:48.901Z,33.20
2018-06-20T14:54:18.889Z,35.20
2018-06-20T14:56:48.949Z,35.70
2018-06-20T14:59:18.153Z,37.50
2018-06-20T15:01:48.556Z,40.50
2018-06-20T15:04:18.316Z,42.40
2018-06-20T15:06:47.490Z,44.90
2018-06-20T15:09:17.289Z,46.60
2018-06-20T15:11:47.040Z,46.20
2018-06-20T15:14:16.804Z,44.40
2018-06-20T15:16:51.377Z,43.10
2018-06-20T15:19:20.480Z,41.30
2018-06-20T15:21:49.717Z,39.60
2018-06-20T15:24:18.866Z,40.20
2018-06-20T15:26:53.256Z,41.00
2018-06-20T15:29:27.550Z,41.60
2018-06-20T15:32:02.958Z,41.50
2018-06-20T15:34:37.260Z,40.40
2018-06-20T15:37:13.488Z,42.50
2018-06-20T15:39:42.773Z,44.40
2018-06-20T15:42:12.029Z,45.30
2018-06-20T15:44:41.240Z,45.80
2018-06-20T15:47:10.391Z,44.30
2018-06-20T15:49:40.238Z,46.70
2018-06-20T15:52:09.297Z,47.40
2018-06-20T15:54:38.526Z,48.80
2018-06-20T15:57:08.441Z,47.20
2018-06-20T15:59:38.383Z,47.70
2018-06-20T16:02:07.500Z,47.60
2018-06-20T16:04:37.533Z,47.80
2018-06-20T16:07:07.343Z,47.80
2018-06-20T16:09:41.692Z,48.40
2018-06-20T16:12:11.073Z,46.80
2018-06-20T16:14:40.172Z,45.80
2018-06-20T16:17:10.385Z,46.80
2018-06-20T16:19:45.340Z,48.80
2018-06-20T16:24:24.383Z,48.50
2018-06-20T16:26:59.109Z,47.20
2018-06-20T16:29:33.652Z,49.60
2018-06-20T16:32:04.172Z,49.90
2018-06-20T16:34:35.217Z,49.40
2018-06-20T16:37:05.280Z,49.40
2018-06-20T16:39:35.369Z,49.20
2018-06-20T16:42:04.520Z,50.60
2018-06-20T16:44:34.513Z,51.30
2018-06-20T16:47:03.649Z,50.30
2018-06-20T16:49:32.856Z,50.10
2018-06-20T16:52:02.667Z,50.80
2018-06-20T16:54:32.668Z,51.00
2018-06-20T16:57:02.709Z,50.90
2018-06-20T16:59:31.810Z,51.60
2018-06-20T17:02:06.928Z,50.80
2018-06-20T17:04:36.832Z,50.50
2018-06-20T17:07:06.749Z,49.40
2018-06-20T17:09:36.079Z,51.60
2018-06-20T17:12:10.684Z,50.90
2018-06-20T17:14:44.951Z,51.80
2018-06-20T17:17:21.020Z,50.40
2018-06-20T17:19:55.383Z,50.10
2018-06-20T17:22:31.467Z,52.80
2018-06-20T17:25:05.764Z,51.00
2018-06-20T17:27:35.184Z,50.70
2018-06-20T17:30:05.825Z,50.10
2018-06-20T17:32:35.653Z,50.20
2018-06-20T17:35:04.852Z,51.70
2018-06-20T17:37:34.572Z,52.90
2018-06-20T17:40:03.788Z,52.40
2018-06-20T17:42:33.576Z,53.70
2018-06-20T17:45:02.728Z,54.30
2018-06-20T17:47:31.924Z,54.90
2018-06-20T17:50:01.094Z,56.20
2018-06-20T17:52:30.267Z,56.70
2018-06-20T17:54:59.413Z,58.50
2018-06-20T17:57:28.920Z,58.70
2018-06-20T17:59:58.012Z,58.70
2018-06-20T18:02:27.122Z,58.80
2018-06-20T18:05:01.710Z,59.50
2018-06-20T18:07:36.850Z,60.00
2018-06-20T18:10:11.384Z,61.40
2018-06-20T18:12:45.733Z,62.00
2018-06-20T18:15:20.273Z,62.60
2018-06-20T18:17:49.540Z,63.00
2018-06-20T18:20:18.620Z,64.00
2018-06-20T18:22:47.701Z,65.50
2018-06-20T18:25:17.104Z,65.30
2018-06-20T18:27:46.284Z,65.70
2018-06-20T18:30:15.641Z,66.10
2018-06-20T18:32:44.733Z,67.00
2018-06-20T18:35:14.693Z,67.10
2018-06-20T18:37:43.799Z,68.90
2018-06-20T18:40:12.897Z,69.30
2018-06-20T18:42:42.643Z,70.40
2018-06-20T18:45:11.700Z,71.30
2018-06-20T18:47:46.080Z,71.80
2018-06-20T18:50:15.172Z,73.60
2018-06-20T18:52:44.309Z,74.90
2018-06-20T18:55:13.640Z,75.90
2018-06-20T18:57:48.065Z,76.40
2018-06-20T19:00:22.464Z,76.80
2018-06-20T19:02:56.982Z,77.80
2018-06-20T19:05:31.351Z,78.80
2018-06-20T19:08:05.725Z,79.80
2018-06-20T19:10:35.092Z,80.60
2018-06-20T19:13:04.220Z,81.00
2018-06-20T19:15:34.037Z,82.00
2018-06-20T19:18:03.157Z,82.20
2018-06-20T19:20:32.213Z,82.70
2018-06-20T19:23:02.264Z,83.60
2018-06-20T19:25:31.366Z,84.10
2018-06-20T19:28:00.556Z,84.70
2018-06-20T19:30:29.928Z,85.20
2018-06-20T19:32:59.056Z,86.30
2018-06-20T19:35:29.080Z,86.50
2018-06-20T19:37:58.172Z,87.30
2018-06-20T19:40:27.343Z,88.60
2018-06-20T19:42:56.742Z,88.70
2018-06-20T19:45:25.824Z,89.10
2018-06-20T19:47:55.649Z,89.30
2018-06-20T19:50:25.698Z,89.60
2018-06-20T19:52:55.712Z,89.50
2018-06-20T19:55:25.525Z,89.90
2018-06-20T19:57:55.568Z,90.30
2018-06-20T20:00:24.900Z,91.30
2018-06-20T20:02:54.045Z,91.10
2018-06-20T20:05:23.348Z,90.90
2018-06-20T20:07:52.436Z,90.90
2018-06-20T20:10:21.944Z,91.10
2018-06-20T20:12:51.448Z,91.30
2018-06-20T20:15:20.483Z,91.60
2018-06-20T20:17:49.638Z,91.80
2018-06-20T20:20:19.586Z,91.90
2018-06-20T20:22:48.697Z,92.10
2018-06-20T20:25:17.833Z,92.40
2018-06-20T20:27:46.940Z,92.30
2018-06-20T20:30:16.084Z,93.00
2018-06-20T20:32:45.285Z,93.10
2018-06-20T20:35:15.326Z,93.10
2018-06-20T20:37:44.405Z,93.10
2018-06-20T20:40:13.554Z,93.10
2018-06-20T20:42:42.940Z,93.10
2018-06-20T20:45:12.013Z,93.20
2018-06-20T20:47:41.776Z,92.70
2018-06-20T20:50:10.921Z,92.40
2018-06-20T20:52:40.580Z,92.40
2018-06-20T20:55:09.663Z,92.70
2018-06-20T20:57:38.821Z,92.70
2018-06-20T21:00:08.529Z,92.70
2018-06-20T21:02:37.626Z,92.80
2018-06-20T21:05:06.853Z,92.90
2018-06-20T21:07:36.448Z,93.00
2018-06-20T21:10:05.545Z,93.30
2018-06-20T21:12:34.654Z,93.50
2018-06-20T21:15:04.069Z,94.20
2018-06-20T21:17:33.450Z,94.10
2018-06-20T21:20:02.565Z,94.40
2018-06-20T21:22:31.929Z,94.60
2018-06-20T21:25:01.051Z,94.90
2018-06-20T21:27:30.116Z,95.00
2018-06-20T21:29:59.523Z,95.10
2018-06-20T21:32:28.613Z,95.20
2018-06-20T21:34:57.708Z,95.30
2018-06-20T21:37:27.540Z,95.40
2018-06-20T21:39:56.652Z,95.70
2018-06-20T21:42:25.741Z,95.40
2018-06-20T21:44:54.838Z,95.50
2018-06-20T21:47:24.004Z,95.50
2018-06-20T21:49:53.180Z,95.70
2018-06-20T21:52:22.320Z,95.90
2018-06-20T21:54:51.435Z,96.00
2018-06-20T21:57:20.488Z,96.10
2018-06-20T21:59:49.664Z,96.30
2018-06-20T22:02:19.017Z,96.20
2018-06-20T22:04:48.072Z,96.30
2018-06-20T22:07:17.479Z,96.30
2018-06-20T22:09:46.600Z,96.10
2018-06-20T22:12:15.761Z,96.30
2018-06-20T22:14:45.266Z,96.30
2018-06-20T22:17:14.381Z,96.40
2018-06-20T22:19:44.372Z,96.40
2018-06-20T22:22:13.465Z,96.50
2018-06-20T22:24:42.584Z,96.60
2018-06-20T22:27:11.760Z,96.70
2018-06-20T22:29:40.868Z,96.90
2018-06-20T22:32:10.056Z,97.00
2018-06-20T22:34:39.208Z,97.00
2018-06-20T22:37:08.752Z,97.30
2018-06-20T22:39:37.876Z,97.40
2018-06-20T22:42:07.010Z,97.40
2018-06-20T22:44:36.300Z,97.50
2018-06-20T22:47:05.459Z,97.30
2018-06-20T22:49:34.697Z,97.40
2018-06-20T22:52:04.260Z,97.50
2018-06-20T22:54:33.416Z,97.70
2018-06-20T22:57:02.570Z,97.80
2018-06-20T22:59:31.972Z,97.80
2018-06-20T23:02:01.912Z,97.80
2018-06-20T23:04:31.057Z,98.00
2018-06-20T23:07:00.207Z,98.10
2018-06-20T23:09:29.305Z,98.30
2018-06-20T23:11:58.371Z,98.20
2018-06-20T23:14:27.598Z,98.10
2018-06-20T23:16:56.694Z,98.20
2018-06-20T23:19:25.791Z,98.20
2018-06-20T23:21:55.598Z,98.40
2018-06-20T23:24:24.745Z,98.40
2018-06-20T23:26:53.874Z,98.50
2018-06-20T23:29:23.000Z,98.60
2018-06-20T23:31:52.057Z,98.60
2018-06-20T23:34:21.244Z,98.50
2018-06-20T23:36:50.909Z,98.70
2018-06-20T23:39:19.952Z,99.10
2018-06-20T23:41:49.052Z,99.30
2018-06-20T23:44:18.135Z,99.40
2018-06-20T23:46:47.244Z,99.40
2018-06-20T23:49:16.437Z,99.40
2018-06-20T23:51:45.860Z,99.40
2018-06-20T23:54:15.060Z,99.40
2018-06-20T23:56:44.164Z,99.40
2018-06-20T23:59:13.919Z,99.30
